Weather observations for the past three days for
Columbus/West Point/Starkville, Golden Triangle Regional Airport
Imperial (Metric)
Date Time (cdt) Wind (mph) Vis. (mi.) Weather Sky Cond. Temperature (ºF) Relative Humidity Wind Chill (°F) Heat Index (°F) Pressure Precipitation (in)
Air Dwpt 6 hour altimeter (in) sea level (mb) 1 hr 3 hr 6 hr
Max. Min.
05 23:56 S 14 10.00 Mostly Cloudy BKN060 71.1 64 79% 29.86 1011.2
05 22:56 S 10 10.00 Mostly Cloudy FEW043 BKN070 72 64 76% 29.86 1010.9
05 21:56 S 13 10.00 Overcast BKN055 OVC070 73 64 74% 29.85 1010.8
05 20:56 S 13 10.00 Overcast SCT048 OVC070 73 64 74% 29.84 1010.4
05 19:56 S 10 10.00 Overcast SCT050 OVC070 73 63 71% 29.83 1010.0
05 18:56 S 12 10.00 Overcast OVC070 73.9 63 77 73.9 69% 29.84 1010.5
05 17:56 S 13 10.00 Overcast SCT050 OVC080 75.9 63 64% 78 29.85 1010.8
05 16:56 S 15 10.00 Overcast OVC055 75 62.1 64% 77 29.86 1011.2
05 15:56 S 10 10.00 Overcast OVC044 75 62.1 64% 77 29.87 1011.4
05 14:56 S 14 10.00 Overcast OVC050 75 61 62% 77 29.89 1012.0
05 13:56 S 12 10.00 Overcast SCT045 OVC060 75.9 61 60% 78 29.9 1012.3
05 12:56 S 14 G 20 10.00 Mostly Cloudy BKN037 BKN045 77 60.1 77 57.9 56% 79 29.92 1013.1
05 11:56 SW 10 10.00 Mostly Cloudy SCT035 BKN044 73 60.1 64% 29.93 1013.5
05 10:56 S 14 10.00 Fair CLR 72 59 64% 29.94 1014.0
05 09:56 SW 10 10.00 Fair CLR 69.1 57.9 68% 29.95 1014.1
05 08:56 S 10 10.00 Fair CLR 66.9 57 71% 29.94 1013.8
05 07:56 S 8 10.00 Fair CLR 62.1 55 78% 29.93 1013.7
05 06:56 S 8 10.00 Fair CLR 57.9 54 62.1 55 87% 29.91 1012.7
05 05:56 S 9 10.00 Fair CLR 55 52 90% 29.89 1012.2
05 04:56 S 8 10.00 Fair CLR 55.9 52 87% 29.9 1012.5
05 03:56 S 8 10.00 Fair CLR 55.9 52 87% 29.91 1012.7
05 02:56 S 8 10.00 Fair CLR 55.9 51.1 84% 29.91 1012.9
05 01:56 S 10 10.00 Fair CLR 61 52 72% 29.91 1013.1
05 00:56 S 7 10.00 Fair CLR 59 53.1 73.9 57 81% 29.92 1013.3
04 23:56 S 5 10.00 Fair CLR 61 53.1 75% 29.93 1013.4
04 22:56 S 8 10.00 Fair CLR 59 52 78% 29.91 1013.0
04 21:56 S 7 10.00 Fair CLR 62.1 53.1 73% 29.92 1013.0
04 20:56 S 7 10.00 Fair CLR 66 53.1 63% 29.9 1012.6
04 19:56 S 5 10.00 Fair CLR 66 53.1 63% 29.89 1012.3
04 18:56 S 8 10.00 Fair CLR 73.9 53.1 80.1 73.9 48% 29.89 1012.1
04 17:56 S 14 G 17 10.00 Fair CLR 77 52 42% 78 29.9 1012.5
04 16:56 S 8 10.00 Fair CLR 79 52 39% 79 29.91 1012.9
04 15:56 SW 9 10.00 Fair CLR 80.1 50 35% 80 29.93 1013.6
04 14:56 S 14 G 23 10.00 Fair CLR 79 52 39% 79 29.95 1014.3
04 13:56 S 15 10.00 A Few Clouds FEW070 79 52 39% 79 29.97 1014.9
04 12:56 S 10 10.00 Fair CLR 78.1 51.1 78.1 52 39% 79 29.98 1015.3
04 11:56 SW 10 10.00 Fair CLR 77 52 42% 78 30.01 1016.2
04 10:56 W 10 10.00 Fair CLR 73.9 52 46% 30.03 1017.0
04 09:56 Vrbl 7 10.00 Fair CLR 71.1 52 51% 30.04 1017.2
04 08:56 SW 6 10.00 Fair CLR 66.9 53.1 61% 30.04 1017.3
04 07:56 S 5 10.00 Fair CLR 57.9 52 81% 30.04 1017.5
04 06:56 Calm 10.00 Fair CLR 52 48.9 55.9 48 89% 30.04 1017.3
04 05:56 S 5 10.00 Fair CLR 51.1 48 89% 30.02 1016.7
04 04:56 S 5 10.00 Fair CLR 48.9 46.9 93% 48 30.02 1016.7
04 03:56 S 6 10.00 Fair CLR 50 48 93% 48 30.02 1016.7
04 02:56 S 6 10.00 Fair CLR 48.9 48 97% 47 30.02 1016.7
04 00:56 S 5 10.00 Fair CLR 54 48.9 72 52 83% 30.06 1018.2
03 23:56 S 7 10.00 Fair CLR 55 48 77% 30.07 1018.3
03 22:56 S 6 10.00 Fair CLR 54 50 87% 30.08 1018.6
03 21:56 S 3 10.00 Fair CLR 57.9 51.1 78% 30.08 1018.8
03 20:56 Calm 10.00 Fair CLR 60.1 51.1 72% 30.06 1018.0
03 19:56 Calm 10.00 Fair CLR 66 50 56% 30.05 1017.7
03 18:56 Calm 10.00 A Few Clouds FEW001 72 44.1 75 69.1 37% 30.04 1017.4
03 17:56 Vrbl 3 10.00 Fair CLR 73.9 44.1 34% 30.05 1017.8
03 16:56 Calm 10.00 Fair CLR 75 44.1 33% 77 30.06 1018.1
03 15:56 SW 6 10.00 Fair CLR 73.9 45 36% 30.09 1019.0
03 14:56 SW 8 10.00 Fair CLR 73 44.1 35% 30.13 1020.3
03 12:56 Calm 10.00 Fair CLR 69.1 41 69.1 45 36% 30.18 1022.2
03 11:56 Calm 10.00 Fair CLR 69.1 43 39% 30.21 1023.0
03 10:56 Vrbl 3 10.00 Fair CLR 66 43 43% 30.22 1023.6
03 09:56 Calm 10.00 Fair CLR 62.1 43 50% 30.23 1023.6
03 08:56 E 5 10.00 Fair CLR 57 48 72% 30.22 1023.3
03 07:56 Calm 10.00 Fair CLR 53.1 48 83% 30.21 1023.1
03 06:56 Calm 10.00 Fair CLR 45 45 50 44.1 100% 30.2 1022.8
03 05:56 Calm 10.00 Fair CLR 45 44.1 97% 30.18 1022.0
03 04:56 Calm 10.00 Fair CLR 45 45 100% 30.16 1021.5
03 03:56 Calm 10.00 Fair CLR 46 45 96% 30.15 1021.2
03 02:56 Calm 10.00 Fair CLR 46.9 45 93% 30.14 1020.6
03 01:56 N 5 10.00 Fair CLR 48 45 89% 47 30.13 1020.5
03 00:56 N 8 10.00 Fair CLR 48.9 45 66.9 48.9 86% 46 30.12 1020.3 0.01
Date Time (cdt) Wind (mph) Vis. (mi.) Weather Sky Cond. Air Dwpt Max. Min. Relative Humidity Wind Chill (°F) Heat Index (°F) altimeter (in) sea level (mb) 1 hr 3 hr 6 hr
6 hour
Temperature (ºF) Pressure Precipitation (in)